Atkins, Virginia
Current Conditions -  °F | °C
As of 2:35 AM on Wednesday 26 Nov 2014 (Local Time) from KMKJ Reporting Station
Light Rain Light Rain  
Wind Chill:   Ceiling: 3300
Heat Index:   Visibility: 10mi
Dew Point:   Wind: 3mph
Humidity: 75%   Direction: 50°NE
Pressure: 30.01"   Gusts: NA
Location:  36.87°N, 81.4°W
Report Text: KMKJ 260735Z AUTO 05003KT 10SM -RA BKN033 OVC041 05/01 A3001 RMK AO2 T00460006
Loading
Personal Weather Stations






























Interactive Weather Map New forecast layout! Learn more

10-Day Weather Forecast

Advertisements
Track Severe Weather on mobile